sensor_id;sensor_type;location;lat;lon;timestamp;pressure;altitude;pressure_sealevel;temperature;humidity
56272;BME280;42177;48.914;18.160;2023-01-29T00:02:03;993.6;;;2.1;77
56272;BME280;42177;48.914;18.160;2023-01-29T00:07:03;993.6;;;2.1;77
56272;BME280;42177;48.914;18.160;2023-01-29T00:12:03;993.6;;;2.3;77.4
56272;BME280;42177;48.914;18.160;2023-01-29T00:17:03;993.6;;;2.3;77.4
56272;BME280;42177;48.914;18.160;2023-01-29T00:22:03;993.6;;;2.3;78
56272;BME280;42177;48.914;18.160;2023-01-29T00:27:03;993.6;;;2.3;78
56272;BME280;42177;48.914;18.160;2023-01-29T00:32:03;993.5;;;2.2;78.4
56272;BME280;42177;48.914;18.160;2023-01-29T00:37:03;993.5;;;2.2;78.4
56272;BME280;42177;48.914;18.160;2023-01-29T00:42:04;993.5;;;2.3;81.1
56272;BME280;42177;48.914;18.160;2023-01-29T00:47:03;993.5;;;2.3;81.1
56272;BME280;42177;48.914;18.160;2023-01-29T00:52:03;993.7;;;2;84.5
56272;BME280;42177;48.914;18.160;2023-01-29T00:57:03;993.7;;;2;84.5
56272;BME280;42177;48.914;18.160;2023-01-29T01:02:03;993.5;;;2.1;84.8
56272;BME280;42177;48.914;18.160;2023-01-29T01:07:03;993.5;;;2.1;84.8
56272;BME280;42177;48.914;18.160;2023-01-29T01:12:03;993.6;;;1.9;84
56272;BME280;42177;48.914;18.160;2023-01-29T01:17:03;993.6;;;1.9;84
56272;BME280;42177;48.914;18.160;2023-01-29T01:22:03;993.7;;;1.5;84.8
56272;BME280;42177;48.914;18.160;2023-01-29T01:27:03;993.7;;;1.5;84.8
56272;BME280;42177;48.914;18.160;2023-01-29T01:32:03;993.7;;;1.4;85.5
56272;BME280;42177;48.914;18.160;2023-01-29T01:37:03;993.7;;;1.4;85.5
56272;BME280;42177;48.914;18.160;2023-01-29T01:42:04;993.7;;;1.6;83.6
56272;BME280;42177;48.914;18.160;2023-01-29T01:47:03;993.7;;;1.6;83.6
56272;BME280;42177;48.914;18.160;2023-01-29T01:52:03;993.9;;;1.6;83.1
56272;BME280;42177;48.914;18.160;2023-01-29T01:57:05;993.9;;;1.6;83.1
56272;BME280;42177;48.914;18.160;2023-01-29T02:02:03;993.9;;;1.3;83.7
56272;BME280;42177;48.914;18.160;2023-01-29T02:07:03;993.9;;;1.3;83.7
56272;BME280;42177;48.914;18.160;2023-01-29T02:12:04;993.9;;;1.2;83.3
56272;BME280;42177;48.914;18.160;2023-01-29T02:17:03;993.9;;;1.2;83.3
56272;BME280;42177;48.914;18.160;2023-01-29T02:22:05;993.9;;;1.1;83.4
56272;BME280;42177;48.914;18.160;2023-01-29T02:27:05;993.9;;;1.1;83.4
56272;BME280;42177;48.914;18.160;2023-01-29T02:32:20;993.9;;;1.1;83.6
56272;BME280;42177;48.914;18.160;2023-01-29T02:37:03;993.9;;;1.1;83.6
56272;BME280;42177;48.914;18.160;2023-01-29T02:42:07;994.1;;;0.9;84.5
56272;BME280;42177;48.914;18.160;2023-01-29T02:47:04;994.1;;;0.9;84.5
56272;BME280;42177;48.914;18.160;2023-01-29T02:52:04;994.1;;;1;82.7
56272;BME280;42177;48.914;18.160;2023-01-29T02:57:04;994.1;;;1;82.7
56272;BME280;42177;48.914;18.160;2023-01-29T03:02:04;994.2;;;0.7;83.1
56272;BME280;42177;48.914;18.160;2023-01-29T03:07:04;994.2;;;0.7;83.1
56272;BME280;42177;48.914;18.160;2023-01-29T03:12:04;994.1;;;0.7;83.2
56272;BME280;42177;48.914;18.160;2023-01-29T03:17:03;994.1;;;0.7;83.2
56272;BME280;42177;48.914;18.160;2023-01-29T03:22:03;993.9;;;0.7;83.1
56272;BME280;42177;48.914;18.160;2023-01-29T03:27:05;993.9;;;0.7;83.1
56272;BME280;42177;48.914;18.160;2023-01-29T03:32:03;993.8;;;0.8;82.3
56272;BME280;42177;48.914;18.160;2023-01-29T03:37:04;993.8;;;0.8;82.3
56272;BME280;42177;48.914;18.160;2023-01-29T03:42:03;994;;;0.9;81.2
56272;BME280;42177;48.914;18.160;2023-01-29T03:47:06;994;;;0.9;81.2
56272;BME280;42177;48.914;18.160;2023-01-29T03:52:04;993.9;;;0.8;81.4
56272;BME280;42177;48.914;18.160;2023-01-29T03:57:03;993.9;;;0.8;81.4
56272;BME280;42177;48.914;18.160;2023-01-29T04:02:04;994;;;0.8;80.9
56272;BME280;42177;48.914;18.160;2023-01-29T04:07:04;994;;;0.8;80.9
56272;BME280;42177;48.914;18.160;2023-01-29T04:12:04;994.1;;;0.7;80.9
56272;BME280;42177;48.914;18.160;2023-01-29T04:17:06;994.1;;;0.7;80.9
56272;BME280;42177;48.914;18.160;2023-01-29T04:22:04;994.2;;;0.9;79.8
56272;BME280;42177;48.914;18.160;2023-01-29T04:27:06;994.2;;;0.9;79.8
56272;BME280;42177;48.914;18.160;2023-01-29T04:32:05;994.3;;;0.7;78.8
56272;BME280;42177;48.914;18.160;2023-01-29T04:37:04;994.3;;;0.7;78.8
56272;BME280;42177;48.914;18.160;2023-01-29T04:42:05;994.3;;;0.8;78.2
56272;BME280;42177;48.914;18.160;2023-01-29T04:47:04;994.3;;;0.8;78.2
56272;BME280;42177;48.914;18.160;2023-01-29T04:52:05;994.2;;;0.9;76.4
56272;BME280;42177;48.914;18.160;2023-01-29T04:57:05;994.2;;;0.9;76.4
56272;BME280;42177;48.914;18.160;2023-01-29T05:02:03;994;;;0.9;74.6
56272;BME280;42177;48.914;18.160;2023-01-29T05:07:03;994;;;0.9;74.6
56272;BME280;42177;48.914;18.160;2023-01-29T05:12:03;994.1;;;0.7;73.6
56272;BME280;42177;48.914;18.160;2023-01-29T05:17:04;994.1;;;0.7;73.6
56272;BME280;42177;48.914;18.160;2023-01-29T05:22:03;994.3;;;0.7;73.9
56272;BME280;42177;48.914;18.160;2023-01-29T05:27:03;994.3;;;0.7;73.9
56272;BME280;42177;48.914;18.160;2023-01-29T05:32:03;994.2;;;0.8;73.6
56272;BME280;42177;48.914;18.160;2023-01-29T05:37:03;994.2;;;0.8;73.6
56272;BME280;42177;48.914;18.160;2023-01-29T05:42:03;994.2;;;1;74.1
56272;BME280;42177;48.914;18.160;2023-01-29T05:47:03;994.2;;;1;74.1
56272;BME280;42177;48.914;18.160;2023-01-29T05:52:03;994.1;;;0.9;74.1
56272;BME280;42177;48.914;18.160;2023-01-29T05:57:03;994.1;;;0.9;74.1
56272;BME280;42177;48.914;18.160;2023-01-29T06:02:03;993.9;;;1;72.6
56272;BME280;42177;48.914;18.160;2023-01-29T06:07:03;993.9;;;1;72.6
56272;BME280;42177;48.914;18.160;2023-01-29T06:12:03;994;;;0.9;72.7
56272;BME280;42177;48.914;18.160;2023-01-29T06:17:03;994;;;0.9;72.7
56272;BME280;42177;48.914;18.160;2023-01-29T06:22:03;994.2;;;0.8;72.8
56272;BME280;42177;48.914;18.160;2023-01-29T06:27:03;994.2;;;0.8;72.8
56272;BME280;42177;48.914;18.160;2023-01-29T06:32:03;994.4;;;0.6;72.2
56272;BME280;42177;48.914;18.160;2023-01-29T06:37:03;994.4;;;0.6;72.2
56272;BME280;42177;48.914;18.160;2023-01-29T06:42:03;994.4;;;0.7;70.8
56272;BME280;42177;48.914;18.160;2023-01-29T06:47:03;994.4;;;0.7;70.8
56272;BME280;42177;48.914;18.160;2023-01-29T06:52:03;994.4;;;0.9;69.7
56272;BME280;42177;48.914;18.160;2023-01-29T06:57:03;994.4;;;0.9;69.7
56272;BME280;42177;48.914;18.160;2023-01-29T07:02:03;994.4;;;1;68.6
56272;BME280;42177;48.914;18.160;2023-01-29T07:07:03;994.4;;;1;68.6
56272;BME280;42177;48.914;18.160;2023-01-29T07:12:03;994.4;;;1;68.1
56272;BME280;42177;48.914;18.160;2023-01-29T07:17:03;994.4;;;1;68.1
56272;BME280;42177;48.914;18.160;2023-01-29T07:22:03;994.6;;;0.7;68.4
56272;BME280;42177;48.914;18.160;2023-01-29T07:27:03;994.6;;;0.7;68.4
56272;BME280;42177;48.914;18.160;2023-01-29T07:32:03;994.7;;;0.7;68.3
56272;BME280;42177;48.914;18.160;2023-01-29T07:37:03;994.7;;;0.7;68.3
56272;BME280;42177;48.914;18.160;2023-01-29T07:42:03;994.6;;;0.6;68.4
56272;BME280;42177;48.914;18.160;2023-01-29T07:47:03;994.6;;;0.6;68.4
56272;BME280;42177;48.914;18.160;2023-01-29T07:52:03;994.7;;;0.5;68.5
56272;BME280;42177;48.914;18.160;2023-01-29T07:57:03;994.7;;;0.5;68.5
56272;BME280;42177;48.914;18.160;2023-01-29T08:02:03;994.7;;;0.4;69.2
56272;BME280;42177;48.914;18.160;2023-01-29T08:07:03;994.7;;;0.4;69.2
56272;BME280;42177;48.914;18.160;2023-01-29T08:12:03;994.7;;;0.5;68
56272;BME280;42177;48.914;18.160;2023-01-29T08:17:03;994.7;;;0.5;68
56272;BME280;42177;48.914;18.160;2023-01-29T08:22:03;994.8;;;0.6;68.1
56272;BME280;42177;48.914;18.160;2023-01-29T08:27:03;994.8;;;0.6;68.1
56272;BME280;42177;48.914;18.160;2023-01-29T08:32:03;994.8;;;0.8;67.5
56272;BME280;42177;48.914;18.160;2023-01-29T08:37:03;994.8;;;0.8;67.5
56272;BME280;42177;48.914;18.160;2023-01-29T08:42:03;995;;;0.8;68.4
56272;BME280;42177;48.914;18.160;2023-01-29T08:47:03;995;;;0.8;68.4
56272;BME280;42177;48.914;18.160;2023-01-29T08:52:03;995;;;1;66.4
56272;BME280;42177;48.914;18.160;2023-01-29T08:57:03;995;;;1;66.4
56272;BME280;42177;48.914;18.160;2023-01-29T09:02:03;995.2;;;0.8;65.4
56272;BME280;42177;48.914;18.160;2023-01-29T09:07:03;995.2;;;0.8;65.4
56272;BME280;42177;48.914;18.160;2023-01-29T09:12:03;995.3;;;0.6;66.2
56272;BME280;42177;48.914;18.160;2023-01-29T09:17:03;995.3;;;0.6;66.2
56272;BME280;42177;48.914;18.160;2023-01-29T09:22:03;995.4;;;0.9;65.5
56272;BME280;42177;48.914;18.160;2023-01-29T09:27:03;995.4;;;0.9;65.5
56272;BME280;42177;48.914;18.160;2023-01-29T09:32:03;995.4;;;0.8;65.6
56272;BME280;42177;48.914;18.160;2023-01-29T09:37:03;995.4;;;0.8;65.6
56272;BME280;42177;48.914;18.160;2023-01-29T09:42:05;995.3;;;0.4;66.5
56272;BME280;42177;48.914;18.160;2023-01-29T09:47:03;995.3;;;0.4;66.5
56272;BME280;42177;48.914;18.160;2023-01-29T09:52:04;995.3;;;0.6;66.4
56272;BME280;42177;48.914;18.160;2023-01-29T09:57:03;995.3;;;0.6;66.4
56272;BME280;42177;48.914;18.160;2023-01-29T10:02:05;995.1;;;0.6;66.4
56272;BME280;42177;48.914;18.160;2023-01-29T10:07:08;995.1;;;0.6;66.4
56272;BME280;42177;48.914;18.160;2023-01-29T10:12:07;995;;;1;66.2
56272;BME280;42177;48.914;18.160;2023-01-29T10:17:06;995;;;1;66.2
56272;BME280;42177;48.914;18.160;2023-01-29T10:22:08;994.7;;;1;62.8
56272;BME280;42177;48.914;18.160;2023-01-29T10:27:07;994.7;;;1;62.8
56272;BME280;42177;48.914;18.160;2023-01-29T10:32:03;994.5;;;1.4;62.2
56272;BME280;42177;48.914;18.160;2023-01-29T10:37:07;994.5;;;1.4;62.2
56272;BME280;42177;48.914;18.160;2023-01-29T10:42:05;994.7;;;1.4;61.2
56272;BME280;42177;48.914;18.160;2023-01-29T10:47:10;994.7;;;1.4;61.2
56272;BME280;42177;48.914;18.160;2023-01-29T10:52:07;994.7;;;1.5;60.5
56272;BME280;42177;48.914;18.160;2023-01-29T10:57:06;994.7;;;1.5;60.5
56272;BME280;42177;48.914;18.160;2023-01-29T11:02:08;994.5;;;1.4;59.5
56272;BME280;42177;48.914;18.160;2023-01-29T11:07:03;994.5;;;1.4;59.5
56272;BME280;42177;48.914;18.160;2023-01-29T11:12:04;994.4;;;1.1;62.5
56272;BME280;42177;48.914;18.160;2023-01-29T11:17:03;994.4;;;1.1;62.5
56272;BME280;42177;48.914;18.160;2023-01-29T11:22:04;994.1;;;1.2;61.8
56272;BME280;42177;48.914;18.160;2023-01-29T11:27:12;994.1;;;1.2;61.8
56272;BME280;42177;48.914;18.160;2023-01-29T11:32:03;993.7;;;1.2;62.1
56272;BME280;42177;48.914;18.160;2023-01-29T11:37:03;993.7;;;1.2;62.1
56272;BME280;42177;48.914;18.160;2023-01-29T11:42:03;993.5;;;1.5;60.7
56272;BME280;42177;48.914;18.160;2023-01-29T11:47:09;993.5;;;1.5;60.7
56272;BME280;42177;48.914;18.160;2023-01-29T11:52:04;993.4;;;1.8;58.9
56272;BME280;42177;48.914;18.160;2023-01-29T11:57:03;993.4;;;1.8;58.9
56272;BME280;42177;48.914;18.160;2023-01-29T12:02:04;993.2;;;2.1;59.3
56272;BME280;42177;48.914;18.160;2023-01-29T12:07:09;993.2;;;2.1;59.3
56272;BME280;42177;48.914;18.160;2023-01-29T12:12:15;992.9;;;2.4;59.1
56272;BME280;42177;48.914;18.160;2023-01-29T12:17:04;992.9;;;2.4;59.1
56272;BME280;42177;48.914;18.160;2023-01-29T12:22:04;992.8;;;2;58
56272;BME280;42177;48.914;18.160;2023-01-29T12:27:05;992.8;;;2;58
56272;BME280;42177;48.914;18.160;2023-01-29T12:32:06;992.9;;;1.5;58.6
56272;BME280;42177;48.914;18.160;2023-01-29T12:37:05;992.9;;;1.5;58.6
56272;BME280;42177;48.914;18.160;2023-01-29T12:42:04;992.7;;;1.6;58.5
56272;BME280;42177;48.914;18.160;2023-01-29T12:47:04;992.7;;;1.6;58.5
56272;BME280;42177;48.914;18.160;2023-01-29T12:52:07;992.7;;;1.7;58.8
56272;BME280;42177;48.914;18.160;2023-01-29T12:57:06;992.7;;;1.7;58.8
56272;BME280;42177;48.914;18.160;2023-01-29T13:02:05;992.6;;;2.3;57.6
56272;BME280;42177;48.914;18.160;2023-01-29T13:07:07;992.6;;;2.3;57.6
56272;BME280;42177;48.914;18.160;2023-01-29T13:12:04;992.7;;;1.7;59.2
56272;BME280;42177;48.914;18.160;2023-01-29T13:17:05;992.7;;;1.7;59.2
56272;BME280;42177;48.914;18.160;2023-01-29T13:22:03;992.7;;;1.9;60.3
56272;BME280;42177;48.914;18.160;2023-01-29T13:27:03;992.7;;;1.9;60.3
56272;BME280;42177;48.914;18.160;2023-01-29T13:32:03;992.7;;;2.5;58.8
56272;BME280;42177;48.914;18.160;2023-01-29T13:37:08;992.7;;;2.5;58.8
56272;BME280;42177;48.914;18.160;2023-01-29T13:42:13;992.7;;;2.9;55.9
56272;BME280;42177;48.914;18.160;2023-01-29T13:47:04;992.7;;;2.9;55.9
56272;BME280;42177;48.914;18.160;2023-01-29T13:52:21;992.7;;;3.1;53.9
56272;BME280;42177;48.914;18.160;2023-01-29T13:57:03;992.7;;;3.1;53.9
56272;BME280;42177;48.914;18.160;2023-01-29T14:02:18;992.6;;;2;56.2
56272;BME280;42177;48.914;18.160;2023-01-29T14:07:04;992.6;;;2;56.2
56272;BME280;42177;48.914;18.160;2023-01-29T14:12:03;992.5;;;2.2;57.9
56272;BME280;42177;48.914;18.160;2023-01-29T14:17:05;992.5;;;2.2;57.9
56272;BME280;42177;48.914;18.160;2023-01-29T14:22:03;992.6;;;1.9;57.5
56272;BME280;42177;48.914;18.160;2023-01-29T14:27:03;992.6;;;1.9;57.5
56272;BME280;42177;48.914;18.160;2023-01-29T14:32:08;992.5;;;1.7;58.2
56272;BME280;42177;48.914;18.160;2023-01-29T14:42:04;992.5;;;1.7;58.8
56272;BME280;42177;48.914;18.160;2023-01-29T14:47:03;992.5;;;1.7;58.8
56272;BME280;42177;48.914;18.160;2023-01-29T14:52:03;992.6;;;1.6;59.3
56272;BME280;42177;48.914;18.160;2023-01-29T14:57:03;992.6;;;1.6;59.3
56272;BME280;42177;48.914;18.160;2023-01-29T15:02:04;992.5;;;1.6;59.7
56272;BME280;42177;48.914;18.160;2023-01-29T15:07:04;992.5;;;1.6;59.7
56272;BME280;42177;48.914;18.160;2023-01-29T15:12:06;992.4;;;1.4;61
56272;BME280;42177;48.914;18.160;2023-01-29T15:17:05;992.4;;;1.4;61
56272;BME280;42177;48.914;18.160;2023-01-29T15:22:04;992.3;;;1.4;60.9
56272;BME280;42177;48.914;18.160;2023-01-29T15:27:04;992.3;;;1.4;60.9
56272;BME280;42177;48.914;18.160;2023-01-29T15:32:03;992.2;;;1.6;60.6
56272;BME280;42177;48.914;18.160;2023-01-29T15:37:03;992.2;;;1.6;60.6
56272;BME280;42177;48.914;18.160;2023-01-29T15:42:03;992.4;;;1.6;61.5
56272;BME280;42177;48.914;18.160;2023-01-29T15:47:03;992.4;;;1.6;61.5
56272;BME280;42177;48.914;18.160;2023-01-29T15:52:04;992.5;;;1.3;63.3
56272;BME280;42177;48.914;18.160;2023-01-29T15:57:03;992.5;;;1.3;63.3
56272;BME280;42177;48.914;18.160;2023-01-29T16:02:37;992.5;;;1.5;63
56272;BME280;42177;48.914;18.160;2023-01-29T16:07:03;992.5;;;1.5;63
56272;BME280;42177;48.914;18.160;2023-01-29T16:12:03;992.5;;;1.4;64.3
56272;BME280;42177;48.914;18.160;2023-01-29T16:17:09;992.5;;;1.4;64.3
56272;BME280;42177;48.914;18.160;2023-01-29T16:22:03;992.2;;;1.1;64.9
56272;BME280;42177;48.914;18.160;2023-01-29T16:27:06;992.2;;;1.1;64.9
56272;BME280;42177;48.914;18.160;2023-01-29T16:32:03;992.2;;;1.1;65.1
56272;BME280;42177;48.914;18.160;2023-01-29T16:37:03;992.2;;;1.1;65.1
56272;BME280;42177;48.914;18.160;2023-01-29T16:42:20;992.2;;;0.8;65.9
56272;BME280;42177;48.914;18.160;2023-01-29T16:47:05;992.2;;;0.8;65.9
56272;BME280;42177;48.914;18.160;2023-01-29T16:52:14;992.4;;;1;65.9
56272;BME280;42177;48.914;18.160;2023-01-29T16:57:03;992.4;;;1;65.9
56272;BME280;42177;48.914;18.160;2023-01-29T17:02:03;992.2;;;0.9;66.7
56272;BME280;42177;48.914;18.160;2023-01-29T17:07:03;992.2;;;0.9;66.7
56272;BME280;42177;48.914;18.160;2023-01-29T17:12:04;992.2;;;0.8;67.2
56272;BME280;42177;48.914;18.160;2023-01-29T17:17:04;992.2;;;0.8;67.2
56272;BME280;42177;48.914;18.160;2023-01-29T17:22:03;992.2;;;0.8;66.7
56272;BME280;42177;48.914;18.160;2023-01-29T17:27:03;992.2;;;0.8;66.7
56272;BME280;42177;48.914;18.160;2023-01-29T17:32:03;992.2;;;0.5;67.9
56272;BME280;42177;48.914;18.160;2023-01-29T17:37:03;992.2;;;0.5;67.9
56272;BME280;42177;48.914;18.160;2023-01-29T17:42:03;992.3;;;0.5;67.6
56272;BME280;42177;48.914;18.160;2023-01-29T17:47:03;992.3;;;0.5;67.6
56272;BME280;42177;48.914;18.160;2023-01-29T17:52:03;992.1;;;0.6;67.6
56272;BME280;42177;48.914;18.160;2023-01-29T17:57:03;992.1;;;0.6;67.6
56272;BME280;42177;48.914;18.160;2023-01-29T18:02:03;992.3;;;0.3;69.6
56272;BME280;42177;48.914;18.160;2023-01-29T18:07:03;992.3;;;0.3;69.6
56272;BME280;42177;48.914;18.160;2023-01-29T18:12:04;992.4;;;0.2;69.2
56272;BME280;42177;48.914;18.160;2023-01-29T18:17:03;992.4;;;0.2;69.2
56272;BME280;42177;48.914;18.160;2023-01-29T18:22:03;992.3;;;0.3;69.5
56272;BME280;42177;48.914;18.160;2023-01-29T18:27:03;992.3;;;0.3;69.5
56272;BME280;42177;48.914;18.160;2023-01-29T18:32:03;992.2;;;0.2;70.9
56272;BME280;42177;48.914;18.160;2023-01-29T18:37:03;992.2;;;0.2;70.9
56272;BME280;42177;48.914;18.160;2023-01-29T18:42:03;992.1;;;0.1;71.9
56272;BME280;42177;48.914;18.160;2023-01-29T18:47:03;992.1;;;0.1;71.9
56272;BME280;42177;48.914;18.160;2023-01-29T18:52:03;991.9;;;-0.1;72.5
56272;BME280;42177;48.914;18.160;2023-01-29T18:57:03;991.9;;;-0.1;72.5
56272;BME280;42177;48.914;18.160;2023-01-29T19:02:03;991.9;;;-0.2;72.6
56272;BME280;42177;48.914;18.160;2023-01-29T19:07:03;991.9;;;-0.2;72.6
56272;BME280;42177;48.914;18.160;2023-01-29T19:12:03;991.8;;;-0.6;73.6
56272;BME280;42177;48.914;18.160;2023-01-29T19:17:03;991.8;;;-0.6;73.6
56272;BME280;42177;48.914;18.160;2023-01-29T19:22:03;991.9;;;-0.4;74
56272;BME280;42177;48.914;18.160;2023-01-29T19:27:03;991.9;;;-0.4;74
56272;BME280;42177;48.914;18.160;2023-01-29T19:32:03;991.9;;;-0.5;74.3
56272;BME280;42177;48.914;18.160;2023-01-29T19:37:03;991.9;;;-0.5;74.3
56272;BME280;42177;48.914;18.160;2023-01-29T19:42:03;992.1;;;-0.6;74.6
56272;BME280;42177;48.914;18.160;2023-01-29T19:47:03;992.1;;;-0.6;74.6
56272;BME280;42177;48.914;18.160;2023-01-29T19:52:03;992;;;-0.7;75
56272;BME280;42177;48.914;18.160;2023-01-29T19:57:03;992;;;-0.7;75
56272;BME280;42177;48.914;18.160;2023-01-29T20:02:03;992;;;-1.1;75.9
56272;BME280;42177;48.914;18.160;2023-01-29T20:07:03;992;;;-1.1;75.9
56272;BME280;42177;48.914;18.160;2023-01-29T20:12:03;991.8;;;-0.9;76
56272;BME280;42177;48.914;18.160;2023-01-29T20:17:03;991.8;;;-0.9;76
56272;BME280;42177;48.914;18.160;2023-01-29T20:22:03;991.9;;;-1.4;77.7
56272;BME280;42177;48.914;18.160;2023-01-29T20:27:03;991.9;;;-1.4;77.7
56272;BME280;42177;48.914;18.160;2023-01-29T20:32:03;991.9;;;-1.1;76.3
56272;BME280;42177;48.914;18.160;2023-01-29T20:37:03;991.9;;;-1.1;76.3
56272;BME280;42177;48.914;18.160;2023-01-29T20:42:03;991.8;;;-1.8;77.4
56272;BME280;42177;48.914;18.160;2023-01-29T20:47:03;991.8;;;-1.8;77.4
56272;BME280;42177;48.914;18.160;2023-01-29T20:52:03;991.8;;;-1.7;79.5
56272;BME280;42177;48.914;18.160;2023-01-29T20:57:03;991.8;;;-1.7;79.5
56272;BME280;42177;48.914;18.160;2023-01-29T21:02:03;991.6;;;-1.6;78.4
56272;BME280;42177;48.914;18.160;2023-01-29T21:07:03;991.6;;;-1.6;78.4
56272;BME280;42177;48.914;18.160;2023-01-29T21:12:03;991.6;;;-1.5;78.7
56272;BME280;42177;48.914;18.160;2023-01-29T21:17:03;991.6;;;-1.5;78.7
56272;BME280;42177;48.914;18.160;2023-01-29T21:22:03;991.7;;;-1.6;79
56272;BME280;42177;48.914;18.160;2023-01-29T21:27:03;991.7;;;-1.6;79
56272;BME280;42177;48.914;18.160;2023-01-29T21:32:03;991.6;;;-1.7;79
56272;BME280;42177;48.914;18.160;2023-01-29T21:37:03;991.6;;;-1.7;79
56272;BME280;42177;48.914;18.160;2023-01-29T21:42:03;991.6;;;-1.9;78.9
56272;BME280;42177;48.914;18.160;2023-01-29T21:47:04;991.6;;;-1.9;78.9
56272;BME280;42177;48.914;18.160;2023-01-29T21:52:03;991.4;;;-2;80.3
56272;BME280;42177;48.914;18.160;2023-01-29T21:57:03;991.4;;;-2;80.3
56272;BME280;42177;48.914;18.160;2023-01-29T22:02:03;991.3;;;-2;79.3
56272;BME280;42177;48.914;18.160;2023-01-29T22:07:03;991.3;;;-2;79.3
56272;BME280;42177;48.914;18.160;2023-01-29T22:12:04;991.2;;;-2.2;80.2
56272;BME280;42177;48.914;18.160;2023-01-29T22:17:03;991.2;;;-2.2;80.2
56272;BME280;42177;48.914;18.160;2023-01-29T22:22:03;991;;;-2.3;80.8
56272;BME280;42177;48.914;18.160;2023-01-29T22:27:03;991;;;-2.3;80.8
56272;BME280;42177;48.914;18.160;2023-01-29T22:32:03;990.8;;;-1.5;79.4
56272;BME280;42177;48.914;18.160;2023-01-29T22:37:03;990.8;;;-1.5;79.4
56272;BME280;42177;48.914;18.160;2023-01-29T22:42:03;990.7;;;-2.3;81.3
56272;BME280;42177;48.914;18.160;2023-01-29T22:47:03;990.7;;;-2.3;81.3
56272;BME280;42177;48.914;18.160;2023-01-29T22:52:03;990.6;;;-2.1;80.2
56272;BME280;42177;48.914;18.160;2023-01-29T22:57:03;990.6;;;-2.1;80.2
56272;BME280;42177;48.914;18.160;2023-01-29T23:02:03;990.6;;;-2.3;81.1
56272;BME280;42177;48.914;18.160;2023-01-29T23:07:03;990.6;;;-2.3;81.1
56272;BME280;42177;48.914;18.160;2023-01-29T23:12:03;990.6;;;-2.2;80.7
56272;BME280;42177;48.914;18.160;2023-01-29T23:17:03;990.6;;;-2.2;80.7
56272;BME280;42177;48.914;18.160;2023-01-29T23:22:03;990.7;;;-2.2;81.3
56272;BME280;42177;48.914;18.160;2023-01-29T23:27:03;990.7;;;-2.2;81.3
56272;BME280;42177;48.914;18.160;2023-01-29T23:32:03;990.7;;;-2.6;80.9
56272;BME280;42177;48.914;18.160;2023-01-29T23:37:03;990.7;;;-2.6;80.9
56272;BME280;42177;48.914;18.160;2023-01-29T23:42:03;990.6;;;-2.2;80.6
56272;BME280;42177;48.914;18.160;2023-01-29T23:47:03;990.6;;;-2.2;80.6
56272;BME280;42177;48.914;18.160;2023-01-29T23:52:03;990.5;;;-2.7;82.1
56272;BME280;42177;48.914;18.160;2023-01-29T23:57:03;990.5;;;-2.7;82.1
